Time;durP1;ratioP1;P1;durP2;ratioP2;P2;SDS_P1;SDS_P2;PMS_P1;PMS_P2;Temp;Humidity;BMP_temperature;BMP_pressure;BME280_temperature;BME280_humidity;BME280_pressure;Samples;Min_cycle;Max_cycle;Signal;HPM_P1;HPM_P2
2022/03/13 00:00:41;;;;;;;1010.28;942.53;;;;;;;5.99;29.50;101849.72;694303;28;69394;-68
2022/03/13 00:01:03;;;;;;;995.70;934.20;;;;;;;5.97;29.59;101850.81;681278;28;137255;-68
2022/03/13 00:01:24;;;;;;;1002.25;937.55;;;;;;;5.97;29.60;101848.13;685503;28;22458;-68
2022/03/13 00:01:45;;;;;;;898.95;840.20;;;;;;;5.97;29.65;101850.81;684423;28;21529;-68
2022/03/13 00:02:09;;;;;;;650.42;612.58;;;;;;;5.96;29.69;101855.28;685411;28;22380;-68
2022/03/13 00:02:32;;;;;;;300.63;286.50;;;;;;;5.97;29.74;101854.34;693682;28;113620;-68
2022/03/13 00:02:55;;;;;;;375.42;357.55;;;;;;;5.95;29.72;101848.22;694604;28;69437;-68
2022/03/13 00:03:17;;;;;;;458.55;436.40;;;;;;;5.95;29.67;101857.09;694855;28;69286;-68
2022/03/13 00:03:39;;;;;;;447.83;426.35;;;;;;;5.92;29.78;101852.00;694825;28;67485;-68
2022/03/13 00:04:01;;;;;;;492.33;468.70;;;;;;;5.92;29.65;101846.66;696591;28;21531;-68
2022/03/13 00:04:22;;;;;;;586.55;557.38;;;;;;;5.91;29.60;101844.94;695498;28;45027;-68
2022/03/13 00:04:44;;;;;;;754.85;713.65;;;;;;;5.94;29.76;101857.22;696158;28;21427;-68
2022/03/13 00:05:09;;;;;;;886.53;835.63;;;;;;;5.93;29.84;101842.13;695465;28;45254;-68
2022/03/13 00:05:35;;;;;;;911.05;858.60;;;;;;;5.93;29.79;101847.50;693558;28;115718;-68
2022/03/13 00:05:57;;;;;;;896.90;845.40;;;;;;;5.94;29.69;101851.84;692440;28;136569;-68
2022/03/13 00:06:27;;;;;;;968.70;906.95;;;;;;;5.91;29.65;101842.25;695689;28;44377;-68
2022/03/13 00:06:49;;;;;;;653.83;613.60;;;;;;;5.93;29.62;101850.16;691002;28;156575;-68
2022/03/13 00:07:17;;;;;;;450.88;426.77;;;;;;;5.91;29.62;101847.59;694324;28;69395;-68
2022/03/13 00:07:40;;;;;;;909.33;856.10;;;;;;;5.92;29.73;101848.44;692133;28;138685;-69
2022/03/13 00:08:02;;;;;;;750.97;710.17;;;;;;;5.91;29.68;101852.97;694849;28;69160;-68
2022/03/13 00:08:27;;;;;;;695.78;659.08;;;;;;;5.94;29.76;101849.19;695588;28;46291;-68
2022/03/13 00:08:52;;;;;;;583.28;554.67;;;;;;;5.92;29.62;101849.31;692590;28;138383;-68
2022/03/13 00:09:14;;;;;;;621.40;590.08;;;;;;;5.89;29.66;101849.56;693033;28;92611;-68
2022/03/13 00:09:35;;;;;;;742.53;702.17;;;;;;;5.90;29.56;101848.56;695179;28;48075;-68
2022/03/13 00:09:57;;;;;;;767.05;724.45;;;;;;;5.89;29.71;101848.69;695971;28;23485;-68
2022/03/13 00:10:19;;;;;;;828.67;780.72;;;;;;;5.89;29.67;101851.38;695832;28;44185;-68
2022/03/13 00:10:40;;;;;;;599.08;568.15;;;;;;;5.89;29.78;101849.56;695897;28;45403;-68
2022/03/13 00:11:07;;;;;;;816.40;769.85;;;;;;;5.89;29.71;101846.00;696762;28;23158;-68
2022/03/13 00:11:30;;;;;;;984.72;923.13;;;;;;;5.89;29.65;101851.38;696318;28;137423;-68
2022/03/13 00:11:53;;;;;;;1002.65;938.20;;;;;;;5.89;29.84;101846.00;700212;28;45219;-68
2022/03/13 00:12:15;;;;;;;995.15;930.53;;;;;;;5.89;29.86;101846.00;699262;28;70193;-68
2022/03/13 00:12:37;;;;;;;1003.33;940.33;;;;;;;5.89;29.85;101846.00;701017;28;46706;-68
2022/03/13 00:13:00;;;;;;;1001.70;937.97;;;;;;;5.89;29.86;101848.69;699836;28;67470;-68
2022/03/13 00:13:22;;;;;;;976.25;912.85;;;;;;;5.89;29.78;101849.56;698300;28;46400;-68
2022/03/13 00:13:48;;;;;;;946.65;889.03;;;;;;;5.88;29.68;101845.16;694548;28;69298;-68
2022/03/13 00:14:11;;;;;;;954.17;893.22;;;;;;;5.85;29.75;101844.56;692374;28;136493;-68
2022/03/13 00:14:34;;;;;;;982.10;921.63;;;;;;;5.86;29.69;101843.56;693943;28;91187;-68
2022/03/13 00:14:57;;;;;;;1005.08;940.65;;;;;;;5.86;29.71;101844.44;695718;28;46797;-68
2022/03/13 00:15:23;;;;;;;983.60;916.63;;;;;;;5.89;29.90;101848.69;694790;28;69204;-68
2022/03/13 00:15:46;;;;;;;823.80;769.05;;;;;;;5.88;29.84;101845.16;692231;28;137863;-68
2022/03/13 00:16:08;;;;;;;86.80;81.78;;;;;;;5.88;29.86;101841.63;693706;28;92091;-68
2022/03/13 00:16:29;;;;;;;1.00;1.00;;;;;;;5.90;29.92;101842.38;696539;28;5123;-68
2022/03/13 00:16:50;;;;;;;0.80;0.80;;;;;;;5.90;29.91;101845.03;696507;28;22428;-68
2022/03/13 00:17:14;;;;;;;0.60;0.60;;;;;;;5.91;29.98;101838.72;696240;28;21583;-68
2022/03/13 00:17:35;;;;;;;0.50;0.50;;;;;;;5.90;29.91;101840.53;693844;28;92111;-68
2022/03/13 00:17:58;;;;;;;0.52;0.52;;;;;;;5.90;29.76;101835.16;696624;28;21559;-68
2022/03/13 00:18:20;;;;;;;0.50;0.50;;;;;;;5.89;29.71;101846.00;694648;28;69210;-68
2022/03/13 00:18:46;;;;;;;0.40;0.40;;;;;;;5.89;29.79;101846.00;696210;28;21531;-68
2022/03/13 00:19:07;;;;;;;0.40;0.40;;;;;;;5.88;29.68;101845.16;692604;28;138113;-68
2022/03/13 00:19:28;;;;;;;0.40;0.40;;;;;;;5.89;29.47;101844.19;696334;28;24439;-68
2022/03/13 00:19:50;;;;;;;0.40;0.40;;;;;;;5.86;29.64;101839.06;697266;28;959;-68
2022/03/13 00:20:14;;;;;;;0.50;0.50;;;;;;;5.86;29.71;101838.19;700526;28;44421;-68
2022/03/13 00:20:35;;;;;;;0.50;0.50;;;;;;;5.86;29.60;101836.41;699737;28;67540;-68
2022/03/13 00:20:58;;;;;;;0.50;0.50;;;;;;;5.87;29.74;101840.75;700772;28;46368;-68
2022/03/13 00:21:21;;;;;;;0.50;0.50;;;;;;;5.88;29.71;101844.31;700556;28;45276;-68
2022/03/13 00:21:45;;;;;;;0.40;0.40;;;;;;;5.87;29.83;101839.91;698494;28;92283;-68
2022/03/13 00:22:06;;;;;;;0.40;0.40;;;;;;;5.87;29.70;101843.44;696515;28;69430;-68
2022/03/13 00:22:28;;;;;;;0.50;0.50;;;;;;;5.84;29.59;101829.44;696051;28;22399;-68
2022/03/13 00:22:49;;;;;;;0.43;0.43;;;;;;;5.86;29.76;101838.19;695783;28;45235;-68
2022/03/13 00:23:12;;;;;;;0.40;0.40;;;;;;;5.86;29.88;101835.53;696380;28;22389;-68
2022/03/13 00:23:34;;;;;;;0.30;0.30;;;;;;;5.86;30.09;101835.53;694351;28;92673;-68
2022/03/13 00:23:57;;;;;;;0.40;0.40;;;;;;;5.86;29.83;101839.06;694947;28;45323;-68
2022/03/13 00:24:20;;;;;;;0.50;0.50;;;;;;;5.87;29.79;101837.25;699452;28;44397;-68
2022/03/13 00:24:42;;;;;;;0.50;0.50;;;;;;;5.86;29.81;101836.41;699869;28;69461;-68
2022/03/13 00:25:08;;;;;;;0.40;0.40;;;;;;;5.85;29.79;101840.03;700777;28;45251;-68
2022/03/13 00:25:30;;;;;;;0.40;0.40;;;;;;;5.86;29.83;101840.88;697357;28;137894;-68
2022/03/13 00:25:52;;;;;;;0.30;0.30;;;;;;;5.84;29.72;101838.31;702192;28;22409;-68
2022/03/13 00:26:13;;;;;;;0.43;0.43;;;;;;;5.85;29.44;101839.19;698040;28;46307;-68
2022/03/13 00:26:34;;;;;;;0.50;0.50;;;;;;;5.84;29.75;101841.00;695851;28;21556;-68
2022/03/13 00:26:56;;;;;;;0.40;0.40;;;;;;;5.84;29.66;101840.16;695840;28;43780;-68
2022/03/13 00:27:18;;;;;;;0.40;0.40;;;;;;;5.85;29.73;101836.50;696376;28;20936;-68
2022/03/13 00:27:39;;;;;;;0.30;0.30;;;;;;;5.85;29.69;101844.56;695640;28;46395;-68
2022/03/13 00:28:00;;;;;;;0.30;0.30;;;;;;;5.83;29.70;101839.31;695378;28;44259;-68
2022/03/13 00:28:21;;;;;;;0.40;0.40;;;;;;;5.83;29.71;101838.44;696284;28;22417;-68
2022/03/13 00:28:46;;;;;;;0.50;0.50;;;;;;;5.82;29.84;101836.75;695153;28;44384;-68
2022/03/13 00:29:09;;;;;;;0.47;0.47;;;;;;;5.81;29.88;101841.25;694020;28;92372;-68
2022/03/13 00:29:30;;;;;;;0.40;0.40;;;;;;;5.83;29.95;101841.13;694335;28;70430;-68
2022/03/13 00:29:51;;;;;;;0.40;0.40;;;;;;;5.81;29.91;101838.56;696409;28;22428;-68
2022/03/13 00:30:14;;;;;;;0.30;0.30;;;;;;;5.81;29.86;101835.88;696394;28;21494;-68
2022/03/13 00:30:36;;;;;;;0.40;0.40;;;;;;;5.81;29.91;101841.25;694318;28;92271;-68
2022/03/13 00:30:57;;;;;;;0.50;0.50;;;;;;;5.79;29.70;101843.19;696703;28;21539;-68
2022/03/13 00:31:20;;;;;;;0.50;0.50;;;;;;;5.80;29.81;101838.69;696529;28;23441;-68
2022/03/13 00:31:41;;;;;;;0.40;0.40;;;;;;;5.79;29.70;101837.84;694258;28;69391;-68
2022/03/13 00:32:03;;;;;;;0.40;0.40;;;;;;;5.80;29.91;101838.69;695651;28;21565;-68
2022/03/13 00:32:24;;;;;;;0.40;0.40;;;;;;;5.82;29.96;101839.44;697568;28;42642;-68
2022/03/13 00:32:46;;;;;;;0.43;0.43;;;;;;;5.81;29.93;101837.72;698431;28;21554;-68
2022/03/13 00:33:09;;;;;;;0.50;0.50;;;;;;;5.81;29.90;101843.06;698242;28;45240;-68
2022/03/13 00:33:30;;;;;;;0.50;0.50;;;;;;;5.80;29.81;101842.22;695099;28;64230;-68
2022/03/13 00:33:52;;;;;;;0.50;0.50;;;;;;;5.80;29.82;101844.03;696273;28;22411;-68
2022/03/13 00:34:13;;;;;;;0.40;0.40;;;;;;;5.79;29.73;101840.50;695653;28;46283;-68
2022/03/13 00:34:34;;;;;;;0.30;0.30;;;;;;;5.78;29.71;101842.34;696180;28;22418;-68
2022/03/13 00:34:55;;;;;;;0.40;0.40;;;;;;;5.78;29.70;101844.16;696003;28;23488;-68
2022/03/13 00:35:17;;;;;;;0.50;0.50;;;;;;;5.77;29.87;101845.16;696441;28;22408;-68
2022/03/13 00:35:38;;;;;;;0.50;0.50;;;;;;;5.78;29.82;101844.16;695070;28;46394;-68
2022/03/13 00:36:00;;;;;;;0.40;0.40;;;;;;;5.78;29.82;101841.47;696086;28;22465;-68
2022/03/13 00:36:21;;;;;;;0.40;0.40;;;;;;;5.78;29.83;101847.72;695280;28;46354;-68
2022/03/13 00:36:43;;;;;;;0.30;0.30;;;;;;;5.77;29.75;101840.63;695517;28;22408;-68
2022/03/13 00:37:04;;;;;;;0.30;0.30;;;;;;;5.78;29.74;101841.47;695291;28;46369;-68
2022/03/13 00:37:25;;;;;;;0.40;0.40;;;;;;;5.78;29.71;101842.34;697148;28;1519;-68
2022/03/13 00:37:46;;;;;;;0.40;0.40;;;;;;;5.77;29.73;101843.31;696540;28;22155;-68
2022/03/13 00:38:08;;;;;;;0.40;0.40;;;;;;;5.77;29.78;101837.09;696561;28;23476;-68
2022/03/13 00:38:29;;;;;;;0.40;0.40;;;;;;;5.78;29.83;101838.78;695101;28;45264;-68
2022/03/13 00:38:50;;;;;;;0.30;0.30;;;;;;;5.80;29.93;101838.69;695891;28;22581;-68
2022/03/13 00:39:13;;;;;;;0.38;0.38;;;;;;;5.79;29.96;101832.47;696097;28;22413;-68
2022/03/13 00:39:40;;;;;;;0.50;0.50;;;;;;;5.80;29.93;101841.34;694241;28;67601;-68
2022/03/13 00:40:01;;;;;;;0.40;0.40;;;;;;;5.82;30.03;101840.28;692263;28;138753;-68
2022/03/13 00:40:22;;;;;;;0.40;0.40;;;;;;;5.82;30.04;101836.75;696385;28;21419;-68
2022/03/13 00:40:48;;;;;;;0.40;0.40;;;;;;;5.81;29.90;101840.41;695428;28;44364;-68
2022/03/13 00:41:10;;;;;;;0.30;0.30;;;;;;;5.82;29.95;101834.91;692881;28;113117;-68
2022/03/13 00:41:31;;;;;;;0.40;0.40;;;;;;;5.81;29.79;101838.56;696541;28;45266;-69
2022/03/13 00:41:52;;;;;;;0.50;0.50;;;;;;;5.81;29.88;101835.88;698596;28;23504;-68
2022/03/13 00:42:13;;;;;;;0.40;0.40;;;;;;;5.81;29.91;101832.34;698594;28;23477;-68
2022/03/13 00:42:35;;;;;;;0.40;0.40;;;;;;;5.82;29.94;101839.44;699254;28;22433;-68
2022/03/13 00:42:56;;;;;;;0.40;0.40;;;;;;;5.82;29.91;101836.75;698264;28;45289;-69
2022/03/13 00:43:19;;;;;;;0.32;0.32;;;;;;;5.81;29.91;101837.72;699155;28;46191;-68
2022/03/13 00:43:40;;;;;;;0.40;0.40;;;;;;;5.78;29.83;101831.63;696126;28;30598;-68
2022/03/13 00:44:02;;;;;;;0.50;0.50;;;;;;;5.80;29.97;101834.19;696634;28;20650;-68
2022/03/13 00:44:23;;;;;;;0.40;0.40;;;;;;;5.81;29.95;101835.03;697206;28;1576;-68
2022/03/13 00:44:44;;;;;;;0.40;0.40;;;;;;;5.80;29.83;101830.63;696559;28;21556;-68
2022/03/13 00:45:06;;;;;;;0.40;0.40;;;;;;;5.80;29.93;101834.19;696415;28;23431;-68
2022/03/13 00:45:28;;;;;;;0.40;0.40;;;;;;;5.81;29.84;101837.72;695739;28;24692;-68
2022/03/13 00:45:49;;;;;;;0.40;0.40;;;;;;;5.82;30.01;101831.38;695017;28;45061;-68
2022/03/13 00:46:10;;;;;;;0.47;0.47;;;;;;;5.82;29.99;101834.91;696436;28;22490;-68
2022/03/13 00:46:31;;;;;;;0.50;0.50;;;;;;;5.82;30.00;101837.59;695469;28;21419;-68
2022/03/13 00:46:54;;;;;;;0.43;0.43;;;;;;;5.83;30.12;101833.06;690067;28;69432;-68
2022/03/13 00:47:26;;;;;;;0.40;0.40;;;;;;;5.82;29.89;101840.28;689394;28;97218;-68
2022/03/13 00:47:47;;;;;;;0.30;0.30;;;;;;;5.82;29.92;101834.91;691373;28;44043;-68
2022/03/13 00:48:08;;;;;;;0.40;0.40;;;;;;;5.81;29.80;101838.56;692093;28;21534;-68
2022/03/13 00:48:29;;;;;;;0.50;0.50;;;;;;;5.82;29.90;101828.72;693131;28;21633;-68
2022/03/13 00:48:53;;;;;;;0.50;0.50;;;;;;;5.84;29.99;101832.97;695769;28;67493;-68
2022/03/13 00:49:14;;;;;;;0.40;0.40;;;;;;;5.83;29.92;101841.13;695043;28;46366;-68
2022/03/13 00:49:35;;;;;;;0.40;0.40;;;;;;;5.84;29.92;101837.47;695724;28;23460;-68
2022/03/13 00:49:56;;;;;;;0.40;0.40;;;;;;;5.83;29.79;101831.28;695753;28;22393;-68
2022/03/13 00:50:18;;;;;;;0.40;0.40;;;;;;;5.84;29.90;101832.13;691855;28;23483;-68
2022/03/13 00:50:41;;;;;;;0.50;0.50;;;;;;;5.83;29.96;101836.63;689679;28;93331;-68
2022/03/13 00:51:03;;;;;;;0.50;0.50;;;;;;;5.85;29.96;101829.31;692583;28;22493;-68
2022/03/13 00:51:24;;;;;;;0.40;0.40;;;;;;;5.87;30.04;101839.91;693869;28;44397;-68
2022/03/13 00:51:46;;;;;;;0.40;0.40;;;;;;;5.86;29.92;101844.44;692741;28;22401;-68
2022/03/13 00:52:07;;;;;;;0.30;0.30;;;;;;;5.85;30.02;101837.34;693628;28;46354;-68
2022/03/13 00:52:28;;;;;;;0.30;0.30;;;;;;;5.86;29.99;101838.19;695588;28;23426;-67
2022/03/13 00:52:51;;;;;;;0.50;0.50;;;;;;;5.85;29.98;101839.19;695363;28;45333;-68
2022/03/13 00:53:13;;;;;;;0.50;0.50;;;;;;;5.84;29.82;101837.47;695241;28;45299;-68
2022/03/13 00:53:34;;;;;;;0.40;0.40;;;;;;;5.84;29.93;101835.63;695777;28;46389;-68
2022/03/13 00:53:55;;;;;;;0.40;0.40;;;;;;;5.82;29.89;101840.28;696560;28;22404;-69
2022/03/13 00:54:19;;;;;;;0.40;0.40;;;;;;;5.82;29.90;101832.22;696201;28;23254;-68
2022/03/13 00:54:40;;;;;;;0.40;0.40;;;;;;;5.83;29.93;101827.72;693930;28;92208;-68
2022/03/13 00:55:01;;;;;;;0.50;0.50;;;;;;;5.81;29.88;101838.56;696417;28;22389;-68
2022/03/13 00:55:22;;;;;;;0.50;0.50;;;;;;;5.83;30.18;101830.41;696234;28;22406;-68
2022/03/13 00:55:44;;;;;;;0.40;0.40;;;;;;;5.82;30.16;101832.22;696007;28;22410;-68
2022/03/13 00:56:06;;;;;;;0.40;0.40;;;;;;;5.82;30.04;101834.91;695901;28;45323;-69
2022/03/13 00:56:27;;;;;;;0.30;0.30;;;;;;;5.80;30.15;101833.31;695373;28;46367;-70
2022/03/13 00:56:48;;;;;;;0.30;0.30;;;;;;;5.83;30.08;101842.00;695300;28;22480;-69
2022/03/13 00:57:10;;;;;;;0.43;0.43;;;;;;;5.84;30.16;101840.16;696569;28;1368;-70
2022/03/13 00:57:32;;;;;;;0.50;0.50;;;;;;;5.82;30.02;101834.06;694122;28;39619;-70
2022/03/13 00:57:54;;;;;;;0.50;0.50;;;;;;;5.81;30.16;101832.34;693981;28;46407;-70
2022/03/13 00:58:15;;;;;;;0.40;0.40;;;;;;;5.80;30.06;101839.56;694618;28;44364;-70
2022/03/13 00:58:40;;;;;;;0.40;0.40;;;;;;;5.81;30.12;101841.25;695074;28;22625;-70
2022/03/13 00:59:01;;;;;;;0.40;0.40;;;;;;;5.81;30.18;101837.72;692975;28;115960;-70
2022/03/13 00:59:22;;;;;;;0.50;0.50;;;;;;;5.78;30.32;101836.13;696780;28;21565;-70
2022/03/13 00:59:44;;;;;;;0.50;0.50;;;;;;;5.77;30.11;101832.59;696058;28;22359;-70
2022/03/13 01:00:07;;;;;;;0.50;0.50;;;;;;;5.75;30.27;101831.88;695624;28;46248;-70
2022/03/13 01:00:29;;;;;;;0.40;0.40;;;;;;;5.75;30.29;101839.03;694445;28;69497;-70
2022/03/13 01:00:50;;;;;;;0.40;0.40;;;;;;;5.72;30.25;101834.78;695628;28;45378;-70
2022/03/13 01:01:11;;;;;;;0.30;0.30;;;;;;;5.73;30.24;101835.63;696302;28;22408;-70
2022/03/13 01:01:33;;;;;;;0.40;0.40;;;;;;;5.72;30.31;101832.09;695801;28;24178;-70
2022/03/13 01:01:55;;;;;;;0.50;0.50;;;;;;;5.73;30.31;101833.78;695388;28;45067;-70
2022/03/13 01:02:16;;;;;;;0.50;0.50;;;;;;;5.71;30.35;101837.59;696172;28;5583;-70
2022/03/13 01:02:45;;;;;;;0.40;0.40;;;;;;;5.69;30.37;101837.69;692753;28;137944;-70
2022/03/13 01:03:07;;;;;;;0.30;0.30;;;;;;;5.67;30.45;101839.63;695852;28;22250;-70
2022/03/13 01:03:30;;;;;;;0.32;0.32;;;;;;;5.65;30.46;101838.91;694830;28;47208;-70
2022/03/13 01:03:52;;;;;;;0.50;0.50;;;;;;;5.62;30.45;101827.56;694566;28;69310;-70
2022/03/13 01:04:13;;;;;;;0.50;0.50;;;;;;;5.57;30.38;101833.28;695156;28;46359;-70
2022/03/13 01:04:35;;;;;;;0.40;0.40;;;;;;;5.56;30.49;101834.25;696515;28;21564;-70
2022/03/13 01:04:58;;;;;;;0.40;0.40;;;;;;;5.53;30.54;101838.03;693949;28;92291;-71
2022/03/13 01:05:21;;;;;;;0.30;0.30;;;;;;;5.51;30.59;101836.41;693783;28;1436;-70
2022/03/13 01:05:42;;;;;;;0.35;0.35;;;;;;;5.48;30.79;101828.63;691461;28;69502;-70
2022/03/13 01:06:05;;;;;;;0.50;0.50;;;;;;;5.47;30.84;101832.25;695855;28;21742;-70
2022/03/13 01:06:26;;;;;;;0.50;0.50;;;;;;;5.46;30.86;101835.94;694260;28;69274;-70
2022/03/13 01:06:48;;;;;;;0.40;0.40;;;;;;;5.45;30.94;101839.56;695444;28;23502;-70
2022/03/13 01:07:09;;;;;;;0.40;0.40;;;;;;;5.46;30.77;101835.94;698925;28;1254;-70
2022/03/13 01:07:31;;;;;;;0.40;0.40;;;;;;;5.44;30.94;101837.84;700210;28;22397;-70
2022/03/13 01:07:54;;;;;;;0.30;0.30;;;;;;;5.44;30.94;101851.25;699585;28;44394;-70
2022/03/13 01:08:15;;;;;;;0.50;0.50;;;;;;;5.41;31.05;101844.31;695333;28;47076;-70
2022/03/13 01:08:36;;;;;;;0.50;0.50;;;;;;;5.40;31.04;101837.25;695282;28;45272;-70
2022/03/13 01:08:58;;;;;;;0.40;0.40;;;;;;;5.40;31.09;101837.25;696152;28;22360;-70
2022/03/13 01:09:21;;;;;;;0.40;0.40;;;;;;;5.41;31.13;101844.31;694587;28;67280;-70
2022/03/13 01:09:42;;;;;;;0.40;0.40;;;;;;;5.40;31.10;101840.75;694705;28;45048;-70
2022/03/13 01:10:07;;;;;;;0.30;0.30;;;;;;;5.41;31.13;101836.28;696100;28;23866;-70
2022/03/13 01:10:28;;;;;;;0.40;0.40;;;;;;;5.42;31.10;101843.31;692863;28;115271;-70
2022/03/13 01:10:50;;;;;;;0.40;0.40;;;;;;;5.43;31.18;101838.84;696534;28;22369;-70
2022/03/13 01:11:15;;;;;;;0.40;0.40;;;;;;;5.41;31.21;101847.84;695678;28;45295;-70
2022/03/13 01:11:36;;;;;;;0.40;0.40;;;;;;;5.42;31.27;101829.94;692669;28;92311;-70
2022/03/13 01:11:57;;;;;;;0.30;0.30;;;;;;;5.42;31.29;101843.31;695347;28;45275;-70
2022/03/13 01:12:19;;;;;;;0.30;0.30;;;;;;;5.43;31.30;101844.19;696198;28;22182;-70
2022/03/13 01:12:40;;;;;;;0.43;0.43;;;;;;;5.43;31.15;101841.53;696122;28;21547;-70
2022/03/13 01:13:01;;;;;;;0.50;0.50;;;;;;;5.44;31.20;101845.88;696034;28;22398;-71
2022/03/13 01:13:23;;;;;;;0.45;0.45;;;;;;;5.43;31.29;101838.84;696042;28;22415;-70
2022/03/13 01:13:48;;;;;;;0.40;0.40;;;;;;;5.40;31.27;101827.38;700389;28;60542;-70
2022/03/13 01:14:10;;;;;;;0.30;0.30;;;;;;;5.43;31.34;101852.25;700926;28;35873;-70
2022/03/13 01:14:34;;;;;;;0.30;0.30;;;;;;;5.43;31.44;101842.38;700960;28;22182;-70
2022/03/13 01:14:56;;;;;;;0.50;0.50;;;;;;;5.45;31.36;101844.94;698323;28;113462;-70
2022/03/13 01:15:18;;;;;;;0.50;0.50;;;;;;;5.44;31.31;101838.72;700555;28;45303;-70
2022/03/13 01:15:40;;;;;;;0.40;0.40;;;;;;;5.45;31.25;101834.22;698803;28;22391;-70
2022/03/13 01:16:11;;;;;;;0.40;0.40;;;;;;;5.46;31.52;101841.28;694209;28;69588;-70
2022/03/13 01:16:36;;;;;;;0.30;0.30;;;;;;;5.44;31.40;101838.72;691551;28;136146;-68
2022/03/13 01:17:00;;;;;;;0.43;0.43;;;;;;;5.45;31.41;101835.06;695261;28;113609;-69
2022/03/13 01:17:25;;;;;;;0.50;0.50;;;;;;;5.45;31.38;101837.72;696081;28;104503;-68
2022/03/13 01:17:47;;;;;;;0.50;0.50;;;;;;;5.45;31.33;101842.25;697974;28;46202;-68
2022/03/13 01:18:08;;;;;;;0.40;0.40;;;;;;;5.45;31.32;101850.28;697158;28;69521;-68
2022/03/13 01:18:29;;;;;;;0.40;0.40;;;;;;;5.45;31.20;101836.88;699184;28;21328;-68
2022/03/13 01:18:52;;;;;;;0.30;0.30;;;;;;;5.41;31.18;101847.84;701745;28;21854;-69
2022/03/13 01:19:13;;;;;;;0.40;0.40;;;;;;;5.41;31.18;101845.16;699672;28;69442;-69
2022/03/13 01:19:37;;;;;;;0.50;0.50;;;;;;;5.40;31.13;101846.13;698121;28;23464;-68
2022/03/13 01:19:58;;;;;;;0.40;0.40;;;;;;;5.40;31.18;101847.94;696952;28;69398;-68
2022/03/13 01:20:21;;;;;;;0.40;0.40;;;;;;;5.40;31.20;101850.63;697902;28;23483;-68
2022/03/13 01:20:45;;;;;;;0.40;0.40;;;;;;;5.39;31.33;101841.75;696458;28;67635;-68
2022/03/13 01:21:08;;;;;;;0.30;0.30;;;;;;;5.40;31.32;101839.91;694638;28;36903;-68
2022/03/13 01:21:31;;;;;;;0.40;0.40;;;;;;;5.39;31.42;101849.78;694669;28;46742;-68
2022/03/13 01:21:53;;;;;;;0.40;0.40;;;;;;;5.40;31.29;101839.91;694016;28;92292;-70
2022/03/13 01:22:15;;;;;;;0.40;0.40;;;;;;;5.38;31.33;101839.19;696906;28;23456;-69
2022/03/13 01:22:36;;;;;;;0.40;0.40;;;;;;;5.36;31.30;101844.66;695109;28;68331;-68
2022/03/13 01:22:57;;;;;;;0.40;0.40;;;;;;;5.36;31.31;101839.31;696356;28;22414;-68
2022/03/13 01:23:19;;;;;;;0.30;0.30;;;;;;;5.37;31.29;101846.34;694949;28;69422;-68
2022/03/13 01:23:43;;;;;;;0.40;0.40;;;;;;;5.37;31.34;101845.50;696283;28;21323;-69
2022/03/13 01:24:44;;;;;;;0.50;0.50;;;;;;;5.37;31.41;101848.19;694441;28;69261;-69
2022/03/13 01:25:07;;;;;;;0.32;0.32;;;;;;;5.36;31.53;101844.66;681095;28;137351;-69
2022/03/13 01:25:28;;;;;;;0.30;0.30;;;;;;;5.36;31.58;101841.09;687372;28;47492;-71
2022/03/13 01:26:34;;;;;;;0.43;0.43;;;;;;;5.37;31.60;101845.50;693816;28;93110;-69
2022/03/13 01:27:03;;;;;;;0.40;0.40;;;;;;;5.37;31.61;101840.16;692036;28;115608;-69
2022/03/13 01:27:25;;;;;;;0.40;0.40;;;;;;;5.35;31.54;101844.78;693343;28;95073;-69
2022/03/13 01:27:46;;;;;;;0.30;0.30;;;;;;;5.34;31.52;101843.91;695399;28;46598;-69
2022/03/13 01:28:07;;;;;;;0.40;0.40;;;;;;;5.35;31.49;101847.44;696056;28;21506;-68
2022/03/13 01:28:28;;;;;;;0.50;0.50;;;;;;;5.34;31.61;101840.38;699374;28;1759;-68
2022/03/13 01:28:50;;;;;;;0.50;0.50;;;;;;;5.34;31.60;101837.69;699201;28;23536;-68
2022/03/13 01:29:14;;;;;;;0.40;0.40;;;;;;;5.34;31.62;101843.91;698125;28;46280;-68
2022/03/13 01:29:35;;;;;;;0.40;0.40;;;;;;;5.32;31.70;101843.16;696787;28;69281;-66
2022/03/13 01:29:57;;;;;;;0.38;0.38;;;;;;;5.31;31.72;101836.09;696921;28;1033;-68
2022/03/13 01:30:22;;;;;;;0.43;0.43;;;;;;;5.31;31.67;101840.59;695189;28;60707;-68
2022/03/13 01:30:43;;;;;;;0.50;0.50;;;;;;;5.29;31.76;101840.72;695099;28;44408;-68
2022/03/13 01:31:05;;;;;;;0.50;0.50;;;;;;;5.30;31.71;101839.75;695956;28;17351;-69
2022/03/13 01:31:29;;;;;;;0.40;0.40;;;;;;;5.29;31.85;101839.88;692921;28;69436;-69
2022/03/13 01:31:55;;;;;;;0.40;0.40;;;;;;;5.27;31.72;101837.31;695248;28;60950;-69
2022/03/13 01:32:17;;;;;;;0.40;0.40;;;;;;;5.26;31.80;101840.94;695799;28;29184;-68
2022/03/13 01:32:41;;;;;;;0.40;0.40;;;;;;;5.23;31.70;101836.69;695449;28;45284;-68
2022/03/13 01:33:03;;;;;;;0.50;0.50;;;;;;;5.21;31.73;101835.94;694434;28;69448;-68
2022/03/13 01:33:25;;;;;;;0.50;0.50;;;;;;;5.21;31.75;101840.44;695595;28;46421;-68
2022/03/13 01:33:46;;;;;;;0.40;0.40;;;;;;;5.19;31.91;101840.56;695107;28;45251;-68
2022/03/13 01:34:11;;;;;;;0.40;0.40;;;;;;;5.18;31.86;101838.00;695060;28;44383;-68
2022/03/13 01:34:50;;;;;;;0.30;0.30;;;;;;;5.15;31.84;101841.75;693669;28;92055;-69
2022/03/13 01:35:20;;;;;;;0.50;0.50;;;;;;;5.13;32.00;101840.19;692090;28;137666;-68
2022/03/13 01:35:41;;;;;;;0.50;0.50;;;;;;;5.13;31.97;101840.19;692564;28;137857;-68
2022/03/13 01:36:03;;;;;;;0.40;0.40;;;;;;;5.13;32.03;101837.50;696155;28;22536;-68
2022/03/13 01:36:26;;;;;;;0.40;0.40;;;;;;;5.10;31.97;101833.22;694812;28;67541;-68
2022/03/13 01:36:47;;;;;;;0.32;0.32;;;;;;;5.10;32.05;101838.56;694964;28;47620;-68
2022/03/13 01:37:19;;;;;;;0.40;0.40;;;;;;;5.11;31.94;101839.41;696155;28;22409;-68
2022/03/13 01:37:41;;;;;;;0.40;0.40;;;;;;;5.10;32.02;101840.41;692121;28;137584;-68
2022/03/13 01:38:07;;;;;;;0.40;0.40;;;;;;;5.08;31.83;101836.97;693188;28;137940;-68
2022/03/13 01:38:32;;;;;;;0.40;0.40;;;;;;;5.10;31.95;101837.72;697217;28;22404;-68
2022/03/13 01:38:55;;;;;;;0.40;0.40;;;;;;;5.10;31.94;101838.56;694921;28;92538;-69
2022/03/13 01:39:16;;;;;;;0.40;0.40;;;;;;;5.13;31.87;101835.66;694435;28;92258;-68
2022/03/13 01:39:39;;;;;;;0.50;0.50;;;;;;;5.14;32.00;101839.19;696661;28;21539;-68
2022/03/13 01:40:03;;;;;;;0.50;0.50;;;;;;;5.13;31.98;101838.34;697068;28;45208;-68
2022/03/13 01:40:26;;;;;;;0.40;0.40;;;;;;;5.11;32.03;101837.63;695226;28;93171;-68
2022/03/13 01:40:47;;;;;;;0.40;0.40;;;;;;;5.11;32.02;101839.41;696775;28;38800;-68
2022/03/13 01:41:09;;;;;;;0.40;0.40;;;;;;;5.11;32.08;101840.28;697340;28;21537;-68
2022/03/13 01:41:31;;;;;;;0.40;0.40;;;;;;;5.12;32.13;101843.81;696898;28;24768;-68
2022/03/13 01:41:52;;;;;;;0.50;0.50;;;;;;;5.10;32.14;101832.38;696501;28;32553;-68
2022/03/13 01:42:14;;;;;;;0.40;0.40;;;;;;;5.08;31.93;101840.53;696979;28;21412;-68
2022/03/13 01:42:35;;;;;;;0.40;0.40;;;;;;;5.08;32.14;101837.84;693271;28;45300;-68
2022/03/13 01:42:57;;;;;;;0.40;0.40;;;;;;;5.09;32.09;101836.84;693779;28;46467;-68
2022/03/13 01:43:19;;;;;;;0.40;0.40;;;;;;;5.11;32.08;101839.41;690682;28;45278;-68
2022/03/13 01:43:41;;;;;;;0.40;0.40;;;;;;;5.11;32.07;101837.63;690558;28;44175;-68
2022/03/13 01:44:02;;;;;;;0.50;0.50;;;;;;;5.12;32.01;101841.97;691165;28;22412;-68
2022/03/13 01:44:26;;;;;;;0.50;0.50;;;;;;;5.12;31.99;101835.78;692869;28;12284;-68
2022/03/13 01:44:49;;;;;;;0.47;0.47;;;;;;;5.14;31.98;101834.72;696656;28;89462;-68
2022/03/13 01:45:12;;;;;;;0.40;0.40;;;;;;;5.15;32.12;101835.56;697576;28;92238;-68
2022/03/13 01:45:33;;;;;;;0.40;0.40;;;;;;;5.14;32.07;101834.72;701186;28;46406;-69
2022/03/13 01:45:54;;;;;;;0.40;0.40;;;;;;;5.14;32.16;101831.16;701951;28;23429;-68
2022/03/13 01:46:17;;;;;;;0.50;0.50;;;;;;;5.12;32.27;101833.94;701750;28;21533;-69
2022/03/13 01:46:38;;;;;;;0.60;0.60;;;;;;;5.10;32.13;101837.72;698135;28;46474;-69
2022/03/13 01:47:00;;;;;;;0.50;0.50;;;;;;;5.08;32.13;101834.28;696075;28;22748;-68
2022/03/13 01:47:23;;;;;;;0.40;0.40;;;;;;;5.06;32.20;101834.41;694996;28;69540;-68
2022/03/13 01:47:45;;;;;;;0.40;0.40;;;;;;;5.03;32.40;101831.94;695383;28;47657;-69
2022/03/13 01:48:07;;;;;;;0.30;0.30;;;;;;;5.01;32.33;101831.22;694707;28;68368;-68